sensor_id;sensor_type;location;lat;lon;timestamp;temperature;humidity
14093;DHT22;7123;49.468;10.992;2023-08-30T00:01:04;16.20;99.90
14093;DHT22;7123;49.468;10.992;2023-08-30T00:03:31;16.10;99.90
14093;DHT22;7123;49.468;10.992;2023-08-30T00:06:05;16.00;99.90
14093;DHT22;7123;49.468;10.992;2023-08-30T00:08:33;15.90;99.90
14093;DHT22;7123;49.468;10.992;2023-08-30T00:11:00;15.80;99.90
14093;DHT22;7123;49.468;10.992;2023-08-30T00:13:30;15.80;99.90
14093;DHT22;7123;49.468;10.992;2023-08-30T00:15:58;15.80;99.90
14093;DHT22;7123;49.468;10.992;2023-08-30T00:18:25;15.80;99.90
14093;DHT22;7123;49.468;10.992;2023-08-30T00:20:52;15.90;99.90
14093;DHT22;7123;49.468;10.992;2023-08-30T00:23:19;15.90;99.90
14093;DHT22;7123;49.468;10.992;2023-08-30T00:25:46;15.90;99.90
14093;DHT22;7123;49.468;10.992;2023-08-30T00:28:13;16.00;99.90
14093;DHT22;7123;49.468;10.992;2023-08-30T00:30:39;16.10;99.90
14093;DHT22;7123;49.468;10.992;2023-08-30T00:33:06;16.10;99.90
14093;DHT22;7123;49.468;10.992;2023-08-30T00:35:33;16.20;99.90
14093;DHT22;7123;49.468;10.992;2023-08-30T00:38:00;16.20;99.90
14093;DHT22;7123;49.468;10.992;2023-08-30T00:40:28;16.20;99.90
14093;DHT22;7123;49.468;10.992;2023-08-30T00:42:56;16.20;99.90
14093;DHT22;7123;49.468;10.992;2023-08-30T00:45:23;16.20;99.90
14093;DHT22;7123;49.468;10.992;2023-08-30T00:47:50;16.20;99.90
14093;DHT22;7123;49.468;10.992;2023-08-30T00:50:17;16.20;99.90
14093;DHT22;7123;49.468;10.992;2023-08-30T00:52:44;16.20;99.90
14093;DHT22;7123;49.468;10.992;2023-08-30T00:55:11;16.20;99.90
14093;DHT22;7123;49.468;10.992;2023-08-30T00:57:38;16.30;99.90
14093;DHT22;7123;49.468;10.992;2023-08-30T01:00:06;16.30;99.90
14093;DHT22;7123;49.468;10.992;2023-08-30T01:02:33;16.30;99.90
14093;DHT22;7123;49.468;10.992;2023-08-30T01:05:02;16.20;99.90
14093;DHT22;7123;49.468;10.992;2023-08-30T01:07:29;16.20;99.90
14093;DHT22;7123;49.468;10.992;2023-08-30T01:09:56;16.20;99.90
14093;DHT22;7123;49.468;10.992;2023-08-30T01:15:23;16.20;99.90
14093;DHT22;7123;49.468;10.992;2023-08-30T01:17:52;16.20;99.90
14093;DHT22;7123;49.468;10.992;2023-08-30T01:20:21;16.20;99.90
14093;DHT22;7123;49.468;10.992;2023-08-30T01:23:05;16.20;99.90
14093;DHT22;7123;49.468;10.992;2023-08-30T01:25:53;16.10;99.90
14093;DHT22;7123;49.468;10.992;2023-08-30T01:28:24;16.10;99.90
14093;DHT22;7123;49.468;10.992;2023-08-30T01:30:53;16.30;99.90
14093;DHT22;7123;49.468;10.992;2023-08-30T01:33:27;16.10;99.90
14093;DHT22;7123;49.468;10.992;2023-08-30T01:35:57;16.10;99.90
14093;DHT22;7123;49.468;10.992;2023-08-30T01:38:27;16.20;99.90
14093;DHT22;7123;49.468;10.992;2023-08-30T01:40:56;16.20;99.90
14093;DHT22;7123;49.468;10.992;2023-08-30T01:43:26;16.20;99.90
14093;DHT22;7123;49.468;10.992;2023-08-30T01:45:53;16.20;99.90
14093;DHT22;7123;49.468;10.992;2023-08-30T01:48:23;16.20;99.90
14093;DHT22;7123;49.468;10.992;2023-08-30T01:50:51;16.20;99.90
14093;DHT22;7123;49.468;10.992;2023-08-30T01:53:18;16.20;99.90
14093;DHT22;7123;49.468;10.992;2023-08-30T01:55:45;16.20;99.90
14093;DHT22;7123;49.468;10.992;2023-08-30T01:58:12;16.20;99.90
14093;DHT22;7123;49.468;10.992;2023-08-30T02:00:39;16.10;99.90
14093;DHT22;7123;49.468;10.992;2023-08-30T02:03:13;16.10;99.90
14093;DHT22;7123;49.468;10.992;2023-08-30T02:09:01;16.00;99.90
14093;DHT22;7123;49.468;10.992;2023-08-30T02:11:29;16.00;99.90
14093;DHT22;7123;49.468;10.992;2023-08-30T02:14:00;15.90;99.90
14093;DHT22;7123;49.468;10.992;2023-08-30T02:16:27;15.90;99.90
14093;DHT22;7123;49.468;10.992;2023-08-30T02:18:55;15.90;99.90
14093;DHT22;7123;49.468;10.992;2023-08-30T02:21:22;15.90;99.90
14093;DHT22;7123;49.468;10.992;2023-08-30T02:23:50;15.90;99.90
14093;DHT22;7123;49.468;10.992;2023-08-30T02:26:19;15.90;99.90
14093;DHT22;7123;49.468;10.992;2023-08-30T02:28:46;15.90;99.90
14093;DHT22;7123;49.468;10.992;2023-08-30T02:31:12;16.00;99.90
14093;DHT22;7123;49.468;10.992;2023-08-30T02:33:39;16.00;99.90
14093;DHT22;7123;49.468;10.992;2023-08-30T02:36:06;15.90;99.90
14093;DHT22;7123;49.468;10.992;2023-08-30T02:38:34;15.90;99.90
14093;DHT22;7123;49.468;10.992;2023-08-30T02:41:01;15.90;99.90
14093;DHT22;7123;49.468;10.992;2023-08-30T02:43:28;15.80;99.90
14093;DHT22;7123;49.468;10.992;2023-08-30T02:45:55;15.80;99.90
14093;DHT22;7123;49.468;10.992;2023-08-30T02:48:21;15.80;99.90
14093;DHT22;7123;49.468;10.992;2023-08-30T02:50:48;15.80;99.90
14093;DHT22;7123;49.468;10.992;2023-08-30T02:53:15;15.80;99.90
14093;DHT22;7123;49.468;10.992;2023-08-30T02:55:41;15.80;99.90
14093;DHT22;7123;49.468;10.992;2023-08-30T02:58:08;15.80;99.90
14093;DHT22;7123;49.468;10.992;2023-08-30T03:00:36;15.90;99.90
14093;DHT22;7123;49.468;10.992;2023-08-30T03:03:02;15.90;99.90
14093;DHT22;7123;49.468;10.992;2023-08-30T03:05:29;16.00;99.90
14093;DHT22;7123;49.468;10.992;2023-08-30T03:07:56;16.00;99.90
14093;DHT22;7123;49.468;10.992;2023-08-30T03:10:23;16.00;99.90
14093;DHT22;7123;49.468;10.992;2023-08-30T03:12:50;16.00;99.90
14093;DHT22;7123;49.468;10.992;2023-08-30T03:15:17;16.00;99.90
14093;DHT22;7123;49.468;10.992;2023-08-30T03:17:43;16.00;99.90
14093;DHT22;7123;49.468;10.992;2023-08-30T03:20:10;16.00;99.90
14093;DHT22;7123;49.468;10.992;2023-08-30T03:22:37;16.00;99.90
14093;DHT22;7123;49.468;10.992;2023-08-30T03:25:04;16.00;99.90
14093;DHT22;7123;49.468;10.992;2023-08-30T03:27:35;16.00;99.90
14093;DHT22;7123;49.468;10.992;2023-08-30T03:30:03;16.00;99.90
14093;DHT22;7123;49.468;10.992;2023-08-30T03:32:29;16.10;99.90
14093;DHT22;7123;49.468;10.992;2023-08-30T03:34:59;16.10;99.90
14093;DHT22;7123;49.468;10.992;2023-08-30T03:37:25;16.00;99.90
14093;DHT22;7123;49.468;10.992;2023-08-30T03:39:52;16.00;99.90
14093;DHT22;7123;49.468;10.992;2023-08-30T03:42:19;16.00;99.90
14093;DHT22;7123;49.468;10.992;2023-08-30T03:44:45;16.10;99.90
14093;DHT22;7123;49.468;10.992;2023-08-30T03:47:12;16.00;99.90
14093;DHT22;7123;49.468;10.992;2023-08-30T03:49:39;16.10;99.90
14093;DHT22;7123;49.468;10.992;2023-08-30T03:52:05;16.00;99.90
14093;DHT22;7123;49.468;10.992;2023-08-30T03:54:32;16.00;99.90
14093;DHT22;7123;49.468;10.992;2023-08-30T03:56:59;16.00;99.90
14093;DHT22;7123;49.468;10.992;2023-08-30T03:59:25;16.00;99.90
14093;DHT22;7123;49.468;10.992;2023-08-30T04:01:54;16.00;99.90
14093;DHT22;7123;49.468;10.992;2023-08-30T04:04:21;16.00;99.90
14093;DHT22;7123;49.468;10.992;2023-08-30T04:06:47;16.00;99.90
14093;DHT22;7123;49.468;10.992;2023-08-30T04:09:14;16.00;99.90
14093;DHT22;7123;49.468;10.992;2023-08-30T04:11:41;15.90;99.90
14093;DHT22;7123;49.468;10.992;2023-08-30T04:14:08;15.80;99.90
14093;DHT22;7123;49.468;10.992;2023-08-30T04:16:35;15.70;99.90
14093;DHT22;7123;49.468;10.992;2023-08-30T04:19:02;15.50;99.90
14093;DHT22;7123;49.468;10.992;2023-08-30T04:21:28;15.40;99.90
14093;DHT22;7123;49.468;10.992;2023-08-30T04:23:55;15.30;99.90
14093;DHT22;7123;49.468;10.992;2023-08-30T04:26:22;15.30;99.90
14093;DHT22;7123;49.468;10.992;2023-08-30T04:28:48;15.20;99.90
14093;DHT22;7123;49.468;10.992;2023-08-30T04:31:15;15.30;99.90
14093;DHT22;7123;49.468;10.992;2023-08-30T04:33:42;15.30;99.90
14093;DHT22;7123;49.468;10.992;2023-08-30T04:36:08;15.40;99.90
14093;DHT22;7123;49.468;10.992;2023-08-30T04:38:35;15.40;99.90
14093;DHT22;7123;49.468;10.992;2023-08-30T04:41:17;15.40;99.90
14093;DHT22;7123;49.468;10.992;2023-08-30T04:43:44;15.50;99.90
14093;DHT22;7123;49.468;10.992;2023-08-30T04:46:11;15.60;99.90
14093;DHT22;7123;49.468;10.992;2023-08-30T04:48:38;15.60;99.90
14093;DHT22;7123;49.468;10.992;2023-08-30T04:51:04;15.70;99.90
14093;DHT22;7123;49.468;10.992;2023-08-30T04:53:31;15.80;99.90
14093;DHT22;7123;49.468;10.992;2023-08-30T04:55:59;15.80;99.90
14093;DHT22;7123;49.468;10.992;2023-08-30T04:58:25;15.80;99.90
14093;DHT22;7123;49.468;10.992;2023-08-30T05:00:56;15.90;99.90
14093;DHT22;7123;49.468;10.992;2023-08-30T05:03:23;15.90;99.90
14093;DHT22;7123;49.468;10.992;2023-08-30T05:05:49;15.90;99.90
14093;DHT22;7123;49.468;10.992;2023-08-30T05:08:16;15.90;99.90
14093;DHT22;7123;49.468;10.992;2023-08-30T05:10:43;16.00;99.90
14093;DHT22;7123;49.468;10.992;2023-08-30T05:13:10;16.00;99.90
14093;DHT22;7123;49.468;10.992;2023-08-30T05:15:37;16.00;99.90
14093;DHT22;7123;49.468;10.992;2023-08-30T05:18:04;16.00;99.90
14093;DHT22;7123;49.468;10.992;2023-08-30T05:20:31;16.00;99.90
14093;DHT22;7123;49.468;10.992;2023-08-30T05:22:58;16.00;99.90
14093;DHT22;7123;49.468;10.992;2023-08-30T05:25:25;16.00;99.90
14093;DHT22;7123;49.468;10.992;2023-08-30T05:27:52;16.10;99.90
14093;DHT22;7123;49.468;10.992;2023-08-30T05:30:19;16.10;99.90
14093;DHT22;7123;49.468;10.992;2023-08-30T05:32:46;16.10;99.90
14093;DHT22;7123;49.468;10.992;2023-08-30T05:35:12;16.10;99.90
14093;DHT22;7123;49.468;10.992;2023-08-30T05:37:39;16.10;99.90
14093;DHT22;7123;49.468;10.992;2023-08-30T05:40:06;16.00;99.90
14093;DHT22;7123;49.468;10.992;2023-08-30T05:42:34;16.10;99.90
14093;DHT22;7123;49.468;10.992;2023-08-30T05:45:00;16.10;99.90
14093;DHT22;7123;49.468;10.992;2023-08-30T05:47:27;16.10;99.90
14093;DHT22;7123;49.468;10.992;2023-08-30T05:49:54;16.10;99.90
14093;DHT22;7123;49.468;10.992;2023-08-30T05:52:21;16.10;99.90
14093;DHT22;7123;49.468;10.992;2023-08-30T05:54:47;16.10;99.90
14093;DHT22;7123;49.468;10.992;2023-08-30T05:57:14;16.00;99.90
14093;DHT22;7123;49.468;10.992;2023-08-30T05:59:41;16.00;99.90
14093;DHT22;7123;49.468;10.992;2023-08-30T06:02:08;16.00;99.90
14093;DHT22;7123;49.468;10.992;2023-08-30T06:04:36;16.00;99.90
14093;DHT22;7123;49.468;10.992;2023-08-30T06:07:02;16.00;99.90
14093;DHT22;7123;49.468;10.992;2023-08-30T06:09:30;16.00;99.90
14093;DHT22;7123;49.468;10.992;2023-08-30T06:11:56;15.90;99.90
14093;DHT22;7123;49.468;10.992;2023-08-30T06:14:23;15.90;99.90
14093;DHT22;7123;49.468;10.992;2023-08-30T06:16:50;15.80;99.90
14093;DHT22;7123;49.468;10.992;2023-08-30T06:19:17;15.90;99.90
14093;DHT22;7123;49.468;10.992;2023-08-30T06:21:43;15.90;99.90
14093;DHT22;7123;49.468;10.992;2023-08-30T06:24:10;15.90;99.90
14093;DHT22;7123;49.468;10.992;2023-08-30T06:26:37;15.90;99.90
14093;DHT22;7123;49.468;10.992;2023-08-30T06:29:03;15.90;99.90
14093;DHT22;7123;49.468;10.992;2023-08-30T06:31:31;15.70;99.90
14093;DHT22;7123;49.468;10.992;2023-08-30T06:33:59;15.50;99.90
14093;DHT22;7123;49.468;10.992;2023-08-30T06:36:26;15.40;99.90
14093;DHT22;7123;49.468;10.992;2023-08-30T06:38:53;15.30;99.90
14093;DHT22;7123;49.468;10.992;2023-08-30T06:41:20;15.40;99.90
14093;DHT22;7123;49.468;10.992;2023-08-30T06:43:46;15.40;99.90
14093;DHT22;7123;49.468;10.992;2023-08-30T06:46:13;15.40;99.90
14093;DHT22;7123;49.468;10.992;2023-08-30T06:48:40;15.40;99.90
14093;DHT22;7123;49.468;10.992;2023-08-30T06:51:07;15.50;99.90
14093;DHT22;7123;49.468;10.992;2023-08-30T06:53:33;15.40;99.90
14093;DHT22;7123;49.468;10.992;2023-08-30T06:56:01;15.30;99.90
14093;DHT22;7123;49.468;10.992;2023-08-30T06:58:28;15.40;99.90
14093;DHT22;7123;49.468;10.992;2023-08-30T07:00:57;15.40;99.90
14093;DHT22;7123;49.468;10.992;2023-08-30T07:03:24;15.50;99.90
14093;DHT22;7123;49.468;10.992;2023-08-30T07:05:53;15.40;99.90
14093;DHT22;7123;49.468;10.992;2023-08-30T07:08:21;15.40;99.90
14093;DHT22;7123;49.468;10.992;2023-08-30T07:10:48;15.30;99.90
14093;DHT22;7123;49.468;10.992;2023-08-30T07:13:14;15.40;99.90
14093;DHT22;7123;49.468;10.992;2023-08-30T07:15:42;15.50;99.90
14093;DHT22;7123;49.468;10.992;2023-08-30T07:18:09;15.60;99.90
14093;DHT22;7123;49.468;10.992;2023-08-30T07:20:38;15.70;99.90
14093;DHT22;7123;49.468;10.992;2023-08-30T07:23:05;15.80;99.90
14093;DHT22;7123;49.468;10.992;2023-08-30T07:25:37;16.00;99.90
14093;DHT22;7123;49.468;10.992;2023-08-30T07:28:05;15.90;99.90
14093;DHT22;7123;49.468;10.992;2023-08-30T07:30:32;15.90;99.90
14093;DHT22;7123;49.468;10.992;2023-08-30T07:33:01;15.80;99.90
14093;DHT22;7123;49.468;10.992;2023-08-30T07:35:28;15.90;99.90
14093;DHT22;7123;49.468;10.992;2023-08-30T07:37:55;16.00;99.90
14093;DHT22;7123;49.468;10.992;2023-08-30T07:40:21;16.00;99.90
14093;DHT22;7123;49.468;10.992;2023-08-30T07:42:52;16.00;99.90
14093;DHT22;7123;49.468;10.992;2023-08-30T07:45:21;16.00;99.90
14093;DHT22;7123;49.468;10.992;2023-08-30T07:47:48;16.00;99.90
14093;DHT22;7123;49.468;10.992;2023-08-30T07:50:15;16.10;99.90
14093;DHT22;7123;49.468;10.992;2023-08-30T07:52:41;16.20;99.90
14093;DHT22;7123;49.468;10.992;2023-08-30T07:55:12;16.20;99.90
14093;DHT22;7123;49.468;10.992;2023-08-30T07:57:39;16.40;99.90
14093;DHT22;7123;49.468;10.992;2023-08-30T08:00:06;16.50;99.90
14093;DHT22;7123;49.468;10.992;2023-08-30T08:02:34;16.50;99.90
14093;DHT22;7123;49.468;10.992;2023-08-30T08:05:01;16.60;99.90
14093;DHT22;7123;49.468;10.992;2023-08-30T08:07:27;16.70;99.90
14093;DHT22;7123;49.468;10.992;2023-08-30T08:09:54;16.80;99.90
14093;DHT22;7123;49.468;10.992;2023-08-30T08:12:22;17.00;99.90
14093;DHT22;7123;49.468;10.992;2023-08-30T08:14:48;16.90;99.90
14093;DHT22;7123;49.468;10.992;2023-08-30T08:17:15;17.10;99.90
14093;DHT22;7123;49.468;10.992;2023-08-30T08:19:42;17.10;99.90
14093;DHT22;7123;49.468;10.992;2023-08-30T08:22:10;17.20;99.90
14093;DHT22;7123;49.468;10.992;2023-08-30T08:24:37;17.30;99.90
14093;DHT22;7123;49.468;10.992;2023-08-30T08:27:04;17.40;99.90
14093;DHT22;7123;49.468;10.992;2023-08-30T08:29:32;17.40;99.90
14093;DHT22;7123;49.468;10.992;2023-08-30T08:31:59;17.40;99.90
14093;DHT22;7123;49.468;10.992;2023-08-30T08:34:26;17.30;99.90
14093;DHT22;7123;49.468;10.992;2023-08-30T08:36:53;17.30;99.90
14093;DHT22;7123;49.468;10.992;2023-08-30T08:39:19;17.20;99.90
14093;DHT22;7123;49.468;10.992;2023-08-30T08:41:46;17.20;99.90
14093;DHT22;7123;49.468;10.992;2023-08-30T08:44:13;17.20;99.90
14093;DHT22;7123;49.468;10.992;2023-08-30T08:46:41;17.20;99.90
14093;DHT22;7123;49.468;10.992;2023-08-30T08:49:15;17.30;99.90
14093;DHT22;7123;49.468;10.992;2023-08-30T08:51:43;17.40;99.90
14093;DHT22;7123;49.468;10.992;2023-08-30T08:54:11;17.40;99.90
14093;DHT22;7123;49.468;10.992;2023-08-30T08:56:39;17.20;99.90
14093;DHT22;7123;49.468;10.992;2023-08-30T08:59:06;17.00;99.90
14093;DHT22;7123;49.468;10.992;2023-08-30T09:01:35;17.00;99.90
14093;DHT22;7123;49.468;10.992;2023-08-30T09:04:06;17.00;99.90
14093;DHT22;7123;49.468;10.992;2023-08-30T09:06:35;17.10;99.90
14093;DHT22;7123;49.468;10.992;2023-08-30T09:09:03;17.20;99.90
14093;DHT22;7123;49.468;10.992;2023-08-30T09:11:33;17.20;99.90
14093;DHT22;7123;49.468;10.992;2023-08-30T09:14:02;17.10;99.90
14093;DHT22;7123;49.468;10.992;2023-08-30T09:16:29;17.20;99.90
14093;DHT22;7123;49.468;10.992;2023-08-30T09:19:03;17.20;99.90
14093;DHT22;7123;49.468;10.992;2023-08-30T09:21:36;17.30;99.90
14093;DHT22;7123;49.468;10.992;2023-08-30T09:24:05;17.30;99.90
14093;DHT22;7123;49.468;10.992;2023-08-30T09:26:33;17.30;99.90
14093;DHT22;7123;49.468;10.992;2023-08-30T09:29:06;17.20;99.90
14093;DHT22;7123;49.468;10.992;2023-08-30T09:31:39;17.20;99.90
14093;DHT22;7123;49.468;10.992;2023-08-30T09:34:08;17.30;99.90
14093;DHT22;7123;49.468;10.992;2023-08-30T09:36:41;17.30;99.90
14093;DHT22;7123;49.468;10.992;2023-08-30T09:39:12;17.30;99.90
14093;DHT22;7123;49.468;10.992;2023-08-30T09:41:43;17.40;99.90
14093;DHT22;7123;49.468;10.992;2023-08-30T09:46:44;17.50;99.90
14093;DHT22;7123;49.468;10.992;2023-08-30T09:49:15;17.60;99.90
14093;DHT22;7123;49.468;10.992;2023-08-30T09:51:44;17.70;99.90
14093;DHT22;7123;49.468;10.992;2023-08-30T09:54:18;17.80;99.90
14093;DHT22;7123;49.468;10.992;2023-08-30T09:57:05;17.90;99.90
14093;DHT22;7123;49.468;10.992;2023-08-30T09:59:32;17.90;99.90
14093;DHT22;7123;49.468;10.992;2023-08-30T10:02:00;17.70;99.90
14093;DHT22;7123;49.468;10.992;2023-08-30T10:04:28;17.70;99.90
14093;DHT22;7123;49.468;10.992;2023-08-30T10:06:57;17.70;99.90
14093;DHT22;7123;49.468;10.992;2023-08-30T10:09:27;17.70;99.90
14093;DHT22;7123;49.468;10.992;2023-08-30T10:11:54;17.70;99.90
14093;DHT22;7123;49.468;10.992;2023-08-30T10:14:24;17.80;99.90
14093;DHT22;7123;49.468;10.992;2023-08-30T10:17:01;17.80;99.90
14093;DHT22;7123;49.468;10.992;2023-08-30T10:19:29;17.80;99.90
14093;DHT22;7123;49.468;10.992;2023-08-30T10:22:03;18.00;99.90
14093;DHT22;7123;49.468;10.992;2023-08-30T10:24:43;18.00;99.90
14093;DHT22;7123;49.468;10.992;2023-08-30T10:27:31;18.10;99.90
14093;DHT22;7123;49.468;10.992;2023-08-30T10:30:01;18.10;99.90
14093;DHT22;7123;49.468;10.992;2023-08-30T10:32:30;18.00;99.90
14093;DHT22;7123;49.468;10.992;2023-08-30T10:35:01;17.90;99.90
14093;DHT22;7123;49.468;10.992;2023-08-30T10:37:28;17.90;99.90
14093;DHT22;7123;49.468;10.992;2023-08-30T10:39:59;18.00;99.90
14093;DHT22;7123;49.468;10.992;2023-08-30T10:42:27;18.10;99.90
14093;DHT22;7123;49.468;10.992;2023-08-30T10:45:01;18.20;99.90
14093;DHT22;7123;49.468;10.992;2023-08-30T10:47:40;18.20;99.90
14093;DHT22;7123;49.468;10.992;2023-08-30T10:50:12;18.40;99.90
14093;DHT22;7123;49.468;10.992;2023-08-30T10:52:39;18.50;99.90
14093;DHT22;7123;49.468;10.992;2023-08-30T10:55:11;18.60;99.90
14093;DHT22;7123;49.468;10.992;2023-08-30T10:57:41;18.60;99.90
14093;DHT22;7123;49.468;10.992;2023-08-30T11:00:19;18.60;99.90
14093;DHT22;7123;49.468;10.992;2023-08-30T11:02:50;18.60;99.90
14093;DHT22;7123;49.468;10.992;2023-08-30T11:05:29;18.70;99.90
14093;DHT22;7123;49.468;10.992;2023-08-30T11:07:56;18.80;99.90
14093;DHT22;7123;49.468;10.992;2023-08-30T11:10:23;18.80;99.90
14093;DHT22;7123;49.468;10.992;2023-08-30T11:12:50;18.80;99.90
14093;DHT22;7123;49.468;10.992;2023-08-30T11:15:17;18.80;99.90
14093;DHT22;7123;49.468;10.992;2023-08-30T11:17:45;18.80;99.90
14093;DHT22;7123;49.468;10.992;2023-08-30T11:20:14;18.90;99.90
14093;DHT22;7123;49.468;10.992;2023-08-30T11:22:45;19.00;99.90
14093;DHT22;7123;49.468;10.992;2023-08-30T11:25:13;19.00;99.90
14093;DHT22;7123;49.468;10.992;2023-08-30T11:27:40;19.00;99.90
14093;DHT22;7123;49.468;10.992;2023-08-30T11:30:09;18.90;99.90
14093;DHT22;7123;49.468;10.992;2023-08-30T11:32:37;18.90;99.90
14093;DHT22;7123;49.468;10.992;2023-08-30T11:35:05;19.00;99.90
14093;DHT22;7123;49.468;10.992;2023-08-30T11:37:32;18.90;99.90
14093;DHT22;7123;49.468;10.992;2023-08-30T11:40:00;19.00;99.90
14093;DHT22;7123;49.468;10.992;2023-08-30T11:42:27;19.00;99.90
14093;DHT22;7123;49.468;10.992;2023-08-30T11:44:54;19.00;99.90
14093;DHT22;7123;49.468;10.992;2023-08-30T11:47:23;19.00;99.90
14093;DHT22;7123;49.468;10.992;2023-08-30T11:49:52;18.90;99.90
14093;DHT22;7123;49.468;10.992;2023-08-30T11:52:20;18.90;99.90
14093;DHT22;7123;49.468;10.992;2023-08-30T11:54:48;18.90;99.90
14093;DHT22;7123;49.468;10.992;2023-08-30T11:57:15;18.90;99.90
14093;DHT22;7123;49.468;10.992;2023-08-30T11:59:42;18.80;99.90
14093;DHT22;7123;49.468;10.992;2023-08-30T12:02:12;18.80;99.90
14093;DHT22;7123;49.468;10.992;2023-08-30T12:04:46;18.80;99.90
14093;DHT22;7123;49.468;10.992;2023-08-30T12:07:26;18.90;99.90
14093;DHT22;7123;49.468;10.992;2023-08-30T12:10:07;18.80;99.90
14093;DHT22;7123;49.468;10.992;2023-08-30T12:12:34;18.80;99.90
14093;DHT22;7123;49.468;10.992;2023-08-30T12:15:11;18.80;99.90
14093;DHT22;7123;49.468;10.992;2023-08-30T12:17:38;18.90;99.90
14093;DHT22;7123;49.468;10.992;2023-08-30T12:20:05;19.00;99.90
14093;DHT22;7123;49.468;10.992;2023-08-30T12:22:39;19.00;99.90
14093;DHT22;7123;49.468;10.992;2023-08-30T12:27:43;19.20;99.90
14093;DHT22;7123;49.468;10.992;2023-08-30T12:30:10;19.20;99.90
14093;DHT22;7123;49.468;10.992;2023-08-30T12:32:36;19.30;99.90
14093;DHT22;7123;49.468;10.992;2023-08-30T12:35:03;19.30;99.90
14093;DHT22;7123;49.468;10.992;2023-08-30T12:37:30;19.10;99.90
14093;DHT22;7123;49.468;10.992;2023-08-30T12:39:58;19.00;99.90
14093;DHT22;7123;49.468;10.992;2023-08-30T12:42:25;19.10;99.90
14093;DHT22;7123;49.468;10.992;2023-08-30T12:44:52;19.10;99.90
14093;DHT22;7123;49.468;10.992;2023-08-30T12:47:19;19.00;99.90
14093;DHT22;7123;49.468;10.992;2023-08-30T12:49:47;19.00;99.90
14093;DHT22;7123;49.468;10.992;2023-08-30T12:52:14;19.00;99.90
14093;DHT22;7123;49.468;10.992;2023-08-30T12:54:41;19.10;99.90
14093;DHT22;7123;49.468;10.992;2023-08-30T12:57:08;19.10;99.90
14093;DHT22;7123;49.468;10.992;2023-08-30T12:59:34;19.00;99.90
14093;DHT22;7123;49.468;10.992;2023-08-30T13:02:01;19.10;99.90
14093;DHT22;7123;49.468;10.992;2023-08-30T13:04:28;19.20;99.90
14093;DHT22;7123;49.468;10.992;2023-08-30T13:06:54;19.30;99.90
14093;DHT22;7123;49.468;10.992;2023-08-30T13:09:21;19.40;99.90
14093;DHT22;7123;49.468;10.992;2023-08-30T13:11:48;19.50;99.90
14093;DHT22;7123;49.468;10.992;2023-08-30T13:14:15;19.50;99.90
14093;DHT22;7123;49.468;10.992;2023-08-30T13:16:42;19.50;99.90
14093;DHT22;7123;49.468;10.992;2023-08-30T13:19:09;19.50;99.90
14093;DHT22;7123;49.468;10.992;2023-08-30T13:21:36;19.70;99.90
14093;DHT22;7123;49.468;10.992;2023-08-30T13:24:07;19.90;99.90
14093;DHT22;7123;49.468;10.992;2023-08-30T13:26:34;20.00;99.90
14093;DHT22;7123;49.468;10.992;2023-08-30T13:29:01;20.10;99.90
14093;DHT22;7123;49.468;10.992;2023-08-30T13:31:29;20.20;99.90
14093;DHT22;7123;49.468;10.992;2023-08-30T13:33:56;20.40;99.90
14093;DHT22;7123;49.468;10.992;2023-08-30T13:36:22;20.40;99.90
14093;DHT22;7123;49.468;10.992;2023-08-30T13:38:49;20.20;99.90
14093;DHT22;7123;49.468;10.992;2023-08-30T13:41:16;20.20;99.90
14093;DHT22;7123;49.468;10.992;2023-08-30T13:43:43;20.10;99.90
14093;DHT22;7123;49.468;10.992;2023-08-30T13:46:09;20.00;99.90
14093;DHT22;7123;49.468;10.992;2023-08-30T13:48:37;19.90;99.90
14093;DHT22;7123;49.468;10.992;2023-08-30T13:51:04;20.00;99.90
14093;DHT22;7123;49.468;10.992;2023-08-30T13:53:31;20.10;99.90
14093;DHT22;7123;49.468;10.992;2023-08-30T13:55:57;20.30;99.90
14093;DHT22;7123;49.468;10.992;2023-08-30T13:58:24;20.40;99.90
14093;DHT22;7123;49.468;10.992;2023-08-30T14:00:51;20.50;99.90
14093;DHT22;7123;49.468;10.992;2023-08-30T14:03:18;20.70;99.90
14093;DHT22;7123;49.468;10.992;2023-08-30T14:05:45;20.90;99.90
14093;DHT22;7123;49.468;10.992;2023-08-30T14:08:11;20.70;99.90
14093;DHT22;7123;49.468;10.992;2023-08-30T14:10:38;20.70;99.90
14093;DHT22;7123;49.468;10.992;2023-08-30T14:13:05;20.40;99.90
14093;DHT22;7123;49.468;10.992;2023-08-30T14:15:32;20.30;99.90
14093;DHT22;7123;49.468;10.992;2023-08-30T14:17:59;20.30;99.90
14093;DHT22;7123;49.468;10.992;2023-08-30T14:20:27;20.40;99.90
14093;DHT22;7123;49.468;10.992;2023-08-30T14:22:54;20.60;99.90
14093;DHT22;7123;49.468;10.992;2023-08-30T14:25:21;20.60;99.90
14093;DHT22;7123;49.468;10.992;2023-08-30T14:27:47;20.50;99.90
14093;DHT22;7123;49.468;10.992;2023-08-30T14:30:15;20.20;99.90
14093;DHT22;7123;49.468;10.992;2023-08-30T14:32:42;20.10;99.90
14093;DHT22;7123;49.468;10.992;2023-08-30T14:35:09;20.20;99.90
14093;DHT22;7123;49.468;10.992;2023-08-30T14:37:35;20.30;99.90
14093;DHT22;7123;49.468;10.992;2023-08-30T14:40:04;20.30;99.90
14093;DHT22;7123;49.468;10.992;2023-08-30T14:42:31;20.30;99.90
14093;DHT22;7123;49.468;10.992;2023-08-30T14:44:59;20.30;99.90
14093;DHT22;7123;49.468;10.992;2023-08-30T14:47:25;20.10;99.90
14093;DHT22;7123;49.468;10.992;2023-08-30T14:49:52;20.10;99.90
14093;DHT22;7123;49.468;10.992;2023-08-30T14:52:22;20.10;99.90
14093;DHT22;7123;49.468;10.992;2023-08-30T14:54:48;20.10;99.90
14093;DHT22;7123;49.468;10.992;2023-08-30T14:57:15;20.20;99.90
14093;DHT22;7123;49.468;10.992;2023-08-30T14:59:42;20.20;99.90
14093;DHT22;7123;49.468;10.992;2023-08-30T15:02:09;20.10;99.90
14093;DHT22;7123;49.468;10.992;2023-08-30T15:04:36;20.00;99.90
14093;DHT22;7123;49.468;10.992;2023-08-30T15:07:03;20.10;99.90
14093;DHT22;7123;49.468;10.992;2023-08-30T15:09:30;20.20;99.90
14093;DHT22;7123;49.468;10.992;2023-08-30T15:11:57;20.30;99.90
14093;DHT22;7123;49.468;10.992;2023-08-30T15:14:27;20.50;99.90
14093;DHT22;7123;49.468;10.992;2023-08-30T15:16:53;20.30;99.90
14093;DHT22;7123;49.468;10.992;2023-08-30T15:19:20;20.30;99.90
14093;DHT22;7123;49.468;10.992;2023-08-30T15:21:47;20.40;99.90
14093;DHT22;7123;49.468;10.992;2023-08-30T15:24:13;20.50;99.90
14093;DHT22;7123;49.468;10.992;2023-08-30T15:26:43;20.50;99.90
14093;DHT22;7123;49.468;10.992;2023-08-30T15:29:10;20.50;99.90
14093;DHT22;7123;49.468;10.992;2023-08-30T15:31:37;20.50;99.90
14093;DHT22;7123;49.468;10.992;2023-08-30T15:34:03;20.40;99.90
14093;DHT22;7123;49.468;10.992;2023-08-30T15:36:30;20.50;99.90
14093;DHT22;7123;49.468;10.992;2023-08-30T15:38:57;20.60;99.90
14093;DHT22;7123;49.468;10.992;2023-08-30T15:41:24;20.60;99.90
14093;DHT22;7123;49.468;10.992;2023-08-30T15:43:50;20.80;99.90
14093;DHT22;7123;49.468;10.992;2023-08-30T15:46:17;20.80;99.90